createdAt,value
2022-12-18T00:01:33.018Z,97697.59
2022-12-18T00:03:59.389Z,97700.53
2022-12-18T00:06:25.723Z,97694.44
2022-12-18T00:08:52.012Z,97701.66
2022-12-18T00:11:18.284Z,97702.16
2022-12-18T00:13:44.535Z,97713.03
2022-12-18T00:16:10.890Z,97710.41
2022-12-18T00:18:37.581Z,97711.91
2022-12-18T00:21:04.048Z,97708.44
2022-12-18T00:23:30.318Z,97715.19
2022-12-18T00:25:56.580Z,97709.31
2022-12-18T00:28:22.879Z,97705.03
2022-12-18T00:30:49.144Z,97713.28
2022-12-18T00:33:15.404Z,97710.16
2022-12-18T00:35:41.694Z,97716.69
2022-12-18T00:38:08.076Z,97720.97
2022-12-18T00:40:34.327Z,97726.56
2022-12-18T00:43:00.574Z,97718.97
2022-12-18T00:45:26.867Z,97727.22
2022-12-18T00:47:53.261Z,97719.31
2022-12-18T00:50:19.511Z,97724.97
2022-12-18T00:52:45.749Z,97731.50
2022-12-18T00:55:11.993Z,97731.06
2022-12-18T00:57:38.272Z,97741.44
2022-12-18T01:00:04.873Z,97737.16
2022-12-18T01:02:31.208Z,97743.03
2022-12-18T01:04:57.559Z,97739.78
2022-12-18T01:07:23.838Z,97749.97
2022-12-18T01:09:50.097Z,97737.59
2022-12-18T01:12:16.361Z,97748.81
2022-12-18T01:14:42.617Z,97754.25
2022-12-18T01:17:08.858Z,97757.91
2022-12-18T01:19:35.128Z,97751.59
2022-12-18T01:22:01.388Z,97750.28
2022-12-18T01:24:27.682Z,97746.81
2022-12-18T01:26:53.935Z,97754.22
2022-12-18T01:29:20.377Z,97766.59
2022-12-18T01:31:46.766Z,97780.59
2022-12-18T01:34:13.169Z,97778.94
2022-12-18T01:36:39.452Z,97781.41
2022-12-18T01:39:05.716Z,97796.75
2022-12-18T01:41:31.951Z,97798.63
2022-12-18T01:43:58.302Z,97794.13
2022-12-18T01:46:24.604Z,97797.41
2022-12-18T01:48:50.858Z,97792.63
2022-12-18T01:51:17.113Z,97800.38
2022-12-18T01:53:43.376Z,97794.44
2022-12-18T01:56:10.248Z,97807.78
2022-12-18T01:58:36.535Z,97810.59
2022-12-18T02:01:02.806Z,97807.94
2022-12-18T02:03:29.168Z,97810.06
2022-12-18T02:05:55.569Z,97814.84
2022-12-18T02:08:21.871Z,97812.88
2022-12-18T02:10:48.156Z,97818.47
2022-12-18T02:13:14.430Z,97818.78
2022-12-18T02:15:40.687Z,97821.91
2022-12-18T02:18:06.960Z,97823.88
2022-12-18T02:20:33.222Z,97828.16
2022-12-18T02:22:59.495Z,97821.41
2022-12-18T02:25:25.760Z,97824.41
2022-12-18T02:27:52.201Z,97824.06
2022-12-18T02:30:18.701Z,97825.88
2022-12-18T02:32:44.961Z,97830.50
2022-12-18T02:35:11.241Z,97830.97
2022-12-18T02:37:37.495Z,97829.81
2022-12-18T02:40:03.741Z,97826.34
2022-12-18T02:42:30.002Z,97826.34
2022-12-18T02:44:56.264Z,97828.50
2022-12-18T02:47:22.513Z,97832.44
2022-12-18T02:49:48.793Z,97819.06
2022-12-18T02:52:15.040Z,97826.16
2022-12-18T02:54:41.313Z,97828.63
2022-12-18T02:57:07.576Z,97827.47
2022-12-18T02:59:33.855Z,97827.00
2022-12-18T03:02:00.497Z,97835.25
2022-12-18T03:04:26.887Z,97834.94
2022-12-18T03:06:53.140Z,97830.31
2022-12-18T03:09:19.390Z,97833.63
2022-12-18T03:11:45.642Z,97838.91
2022-12-18T03:14:11.903Z,97842.72
2022-12-18T03:16:38.185Z,97833.63
2022-12-18T03:19:04.482Z,97831.84
2022-12-18T03:21:30.747Z,97832.34
2022-12-18T03:23:57.010Z,97840.41
2022-12-18T03:26:23.288Z,97836.13
2022-12-18T03:28:49.572Z,97837.94
2022-12-18T03:31:15.917Z,97837.78
2022-12-18T03:33:42.609Z,97834.66
2022-12-18T03:36:09.362Z,97837.13
2022-12-18T03:38:35.611Z,97836.78
2022-12-18T03:41:01.879Z,97834.63
2022-12-18T03:43:28.187Z,97836.94
2022-12-18T03:45:54.459Z,97837.44
2022-12-18T03:48:20.713Z,97839.41
2022-12-18T03:50:46.980Z,97835.97
2022-12-18T03:53:13.246Z,97838.75
2022-12-18T03:55:39.501Z,97842.88
2022-12-18T03:58:05.759Z,97843.38
2022-12-18T04:00:32.020Z,97834.97
2022-12-18T04:02:58.272Z,97839.59
2022-12-18T04:05:24.521Z,97847.66
2022-12-18T04:07:50.817Z,97841.72
2022-12-18T04:10:17.087Z,97847.50
2022-12-18T04:12:43.396Z,97843.72
2022-12-18T04:15:09.656Z,97843.06
2022-12-18T04:17:35.920Z,97850.16
2022-12-18T04:20:02.203Z,97849.81
2022-12-18T04:22:28.481Z,97839.94
2022-12-18T04:24:54.757Z,97843.56
2022-12-18T04:27:21.013Z,97844.22
2022-12-18T04:29:47.284Z,97844.22
2022-12-18T04:32:13.564Z,97847.16
2022-12-18T04:34:39.834Z,97850.13
2022-12-18T04:37:06.109Z,97852.59
2022-12-18T04:39:32.367Z,97850.28
2022-12-18T04:41:58.618Z,97857.88
2022-12-18T04:44:24.893Z,97854.22
2022-12-18T04:46:51.196Z,97867.41
2022-12-18T04:49:17.529Z,97862.63
2022-12-18T04:51:43.782Z,97866.75
2022-12-18T04:54:10.028Z,97860.63
2022-12-18T04:56:36.291Z,97863.09
2022-12-18T04:59:02.559Z,97870.69
2022-12-18T05:01:34.374Z,97871.19
2022-12-18T05:04:01.235Z,97869.34
2022-12-18T05:06:27.510Z,97872.81
2022-12-18T05:08:53.780Z,97871.19
2022-12-18T05:11:20.058Z,97872.66
2022-12-18T05:13:46.370Z,97869.69
2022-12-18T05:16:12.691Z,97873.66
2022-12-18T05:18:39.004Z,97882.88
2022-12-18T05:21:05.258Z,97886.34
2022-12-18T05:23:31.521Z,97888.81
2022-12-18T05:25:57.789Z,97883.34
2022-12-18T05:28:24.091Z,97885.34
2022-12-18T05:30:50.378Z,97895.56
2022-12-18T05:33:16.664Z,97897.38
2022-12-18T05:35:42.942Z,97899.38
2022-12-18T05:38:09.220Z,97897.53
2022-12-18T05:40:35.491Z,97890.13
2022-12-18T05:43:01.783Z,97893.25
2022-12-18T05:45:28.042Z,97899.19
2022-12-18T05:47:54.316Z,97899.03
2022-12-18T05:50:21.245Z,97900.19
2022-12-18T05:52:47.501Z,97908.09
2022-12-18T05:55:13.748Z,97902.34
2022-12-18T05:57:40.005Z,97910.25
2022-12-18T06:00:06.278Z,97920.97
2022-12-18T06:02:32.594Z,97919.00
2022-12-18T06:04:58.888Z,97907.44
2022-12-18T06:07:25.141Z,97906.59
2022-12-18T06:09:51.415Z,97914.53
2022-12-18T06:12:17.694Z,97912.56
2022-12-18T06:14:43.952Z,97903.81
2022-12-18T06:17:10.210Z,97903.81
2022-12-18T06:19:36.480Z,97907.28
2022-12-18T06:22:02.727Z,97917.34
2022-12-18T06:24:28.994Z,97914.34
2022-12-18T06:26:55.518Z,97916.19
2022-12-18T06:29:21.763Z,97924.75
2022-12-18T06:31:48.083Z,97929.53
2022-12-18T06:34:14.446Z,97926.56
2022-12-18T06:36:40.739Z,97932.84
2022-12-18T06:39:06.983Z,97938.78
2022-12-18T06:41:33.653Z,97943.06
2022-12-18T06:44:00.294Z,97942.88
2022-12-18T06:46:26.677Z,97944.53
2022-12-18T06:48:52.963Z,97957.06
2022-12-18T06:51:19.222Z,97956.41
2022-12-18T06:53:45.501Z,97959.88
2022-12-18T06:56:11.776Z,97965.16
2022-12-18T06:58:38.044Z,97967.13
2022-12-18T07:01:04.362Z,97970.78
2022-12-18T07:03:30.645Z,97967.13
2022-12-18T07:05:56.904Z,97968.78
2022-12-18T07:08:23.162Z,97962.19
2022-12-18T07:10:52.904Z,97971.91
2022-12-18T07:13:22.271Z,97977.38
2022-12-18T07:15:48.556Z,97981.66
2022-12-18T07:18:14.827Z,97983.47
2022-12-18T07:20:41.618Z,97979.84
2022-12-18T07:23:07.901Z,97984.28
2022-12-18T07:25:34.177Z,97986.59
2022-12-18T07:28:00.432Z,97990.88
2022-12-18T07:30:26.674Z,97993.03
2022-12-18T07:32:52.930Z,97996.50
2022-12-18T07:35:23.373Z,97996.84
2022-12-18T07:37:51.145Z,98001.28
2022-12-18T07:40:17.413Z,97997.66
2022-12-18T07:42:43.700Z,98001.13
2022-12-18T07:45:09.965Z,97997.81
2022-12-18T07:47:36.252Z,98001.78
2022-12-18T07:50:02.502Z,98002.78
2022-12-18T07:52:28.756Z,98009.88
2022-12-18T07:54:55.036Z,98019.78
2022-12-18T07:57:48.809Z,98019.94
2022-12-18T08:00:07.548Z,98016.16
2022-12-18T08:02:33.989Z,98021.25
2022-12-18T08:05:01.021Z,98019.94
2022-12-18T08:07:27.310Z,98020.25
2022-12-18T08:09:53.578Z,98023.91
2022-12-18T08:12:19.970Z,98019.44
2022-12-18T08:14:46.216Z,98025.88
2022-12-18T08:17:12.469Z,98019.44
2022-12-18T08:19:38.769Z,98019.94
2022-12-18T08:22:05.042Z,98016.97
2022-12-18T08:24:31.325Z,98020.59
2022-12-18T08:27:27.974Z,98016.81
2022-12-18T08:29:43.829Z,98015.66
2022-12-18T08:32:10.103Z,98011.19
2022-12-18T08:34:36.368Z,98004.75
2022-12-18T08:37:02.641Z,98006.72
2022-12-18T08:39:28.914Z,98012.19
2022-12-18T08:41:55.223Z,98005.91
2022-12-18T08:44:21.504Z,98007.41
2022-12-18T08:46:47.770Z,98009.72
2022-12-18T08:49:14.107Z,98011.03
2022-12-18T08:51:40.350Z,98016.97
2022-12-18T08:54:06.730Z,98025.22
2022-12-18T08:56:33.067Z,98019.94
2022-12-18T08:58:59.323Z,98010.06
2022-12-18T09:01:25.974Z,98018.97
2022-12-18T09:03:52.453Z,98028.69
2022-12-18T09:06:19.176Z,98025.41
2022-12-18T09:08:45.713Z,98025.72
2022-12-18T09:11:12.010Z,98021.28
2022-12-18T09:13:38.585Z,98013.00
2022-12-18T09:16:05.131Z,98019.13
2022-12-18T09:18:31.377Z,98022.91
2022-12-18T09:24:08.864Z,98034.78
2022-12-18T09:26:35.469Z,98038.59
2022-12-18T09:29:01.777Z,98038.75
2022-12-18T09:31:28.050Z,98033.47
2022-12-18T09:33:54.462Z,98034.13
2022-12-18T09:36:20.729Z,98027.03
2022-12-18T09:38:48.089Z,98032.81
2022-12-18T09:41:14.353Z,98026.38
2022-12-18T09:43:40.619Z,98032.66
2022-12-18T09:46:06.922Z,98032.31
2022-12-18T09:48:33.192Z,98031.81
2022-12-18T09:50:59.452Z,98035.13
2022-12-18T09:53:25.771Z,98021.25
2022-12-18T09:55:52.041Z,98017.94
2022-12-18T09:58:18.312Z,98022.88
2022-12-18T10:00:44.578Z,98022.56
2022-12-18T10:03:12.188Z,98023.53
2022-12-18T10:05:38.572Z,98024.50
2022-12-18T10:08:04.846Z,98023.69
2022-12-18T10:10:31.105Z,98026.81
2022-12-18T10:13:04.058Z,98021.88
2022-12-18T10:15:30.932Z,98018.53
2022-12-18T10:17:57.297Z,98019.34
2022-12-18T10:20:23.577Z,98024.78
2022-12-18T10:22:49.872Z,98021.28
2022-12-18T10:25:16.121Z,98016.13
2022-12-18T10:27:42.382Z,98009.69
2022-12-18T10:30:10.432Z,98016.94
2022-12-18T10:32:36.735Z,98012.94
2022-12-18T10:35:03.029Z,98016.75
2022-12-18T10:37:29.279Z,98012.28
2022-12-18T10:39:55.552Z,98011.41
2022-12-18T10:42:21.805Z,98013.69
2022-12-18T10:44:48.067Z,98026.34
2022-12-18T10:47:14.422Z,98016.25
2022-12-18T10:49:40.808Z,98028.16
2022-12-18T10:52:07.098Z,98017.25
2022-12-18T10:54:33.526Z,98012.41
2022-12-18T10:56:59.787Z,98007.75
2022-12-18T10:59:26.054Z,98013.53
2022-12-18T11:01:52.451Z,98010.38
2022-12-18T11:04:18.831Z,98006.22
2022-12-18T11:06:45.095Z,98004.03
2022-12-18T11:09:12.848Z,97994.59
2022-12-18T11:11:40.833Z,97998.22
2022-12-18T11:14:07.102Z,97996.09
2022-12-18T11:16:33.460Z,98002.56
2022-12-18T11:18:59.720Z,97996.94
2022-12-18T11:21:25.976Z,97998.41
2022-12-18T11:23:52.266Z,98004.66
2022-12-18T11:26:18.546Z,98000.69
2022-12-18T11:28:45.291Z,98009.06
2022-12-18T11:31:12.112Z,98003.41
2022-12-18T11:33:38.389Z,97999.78
2022-12-18T11:36:04.660Z,98005.91
2022-12-18T11:38:30.948Z,98000.25
2022-12-18T11:40:57.264Z,97992.13
2022-12-18T11:43:23.552Z,97991.78
2022-12-18T11:45:49.879Z,97987.78
2022-12-18T11:48:16.153Z,97984.63
2022-12-18T11:50:42.427Z,97988.72
2022-12-18T11:53:08.694Z,97980.84
2022-12-18T11:55:34.975Z,97968.25
2022-12-18T11:58:01.669Z,97966.25
2022-12-18T12:00:27.959Z,97955.84
2022-12-18T12:02:54.235Z,97951.56
2022-12-18T12:05:20.542Z,97947.44
2022-12-18T12:07:46.813Z,97948.63
2022-12-18T12:10:13.069Z,97947.63
2022-12-18T12:12:41.824Z,97944.81
2022-12-18T12:15:11.501Z,97937.69
2022-12-18T12:17:37.763Z,97935.88
2022-12-18T12:20:04.022Z,97933.97
2022-12-18T12:22:30.275Z,97931.94
2022-12-18T12:24:56.529Z,97936.50
2022-12-18T12:27:22.785Z,97937.81
2022-12-18T12:29:49.050Z,97927.31
2022-12-18T12:32:15.351Z,97923.31
2022-12-18T12:34:41.645Z,97918.38
2022-12-18T12:37:07.906Z,97915.19
2022-12-18T12:39:34.176Z,97920.13
2022-12-18T12:42:00.437Z,97906.44
2022-12-18T12:44:26.703Z,97913.28
2022-12-18T12:46:52.965Z,97908.91
2022-12-18T12:49:19.297Z,97910.28
2022-12-18T12:51:45.808Z,97906.97
2022-12-18T12:54:13.326Z,97909.91
2022-12-18T12:56:39.579Z,97910.09
2022-12-18T12:59:05.847Z,97904.97
2022-12-18T13:01:32.937Z,97905.16
2022-12-18T13:04:00.149Z,97908.25
2022-12-18T13:06:26.420Z,97897.44
2022-12-18T13:08:52.694Z,97897.94
2022-12-18T13:11:18.956Z,97898.31
2022-12-18T13:13:46.443Z,97888.94
2022-12-18T13:16:13.270Z,97886.91
2022-12-18T13:18:39.952Z,97892.28
2022-12-18T13:21:07.609Z,97894.19
2022-12-18T13:23:33.885Z,97888.75
2022-12-18T13:26:00.325Z,97883.72
2022-12-18T13:28:26.706Z,97882.97
2022-12-18T13:30:53.767Z,97877.47
2022-12-18T13:33:23.415Z,97877.53
2022-12-18T13:35:49.724Z,97870.41
2022-12-18T13:38:16.142Z,97868.38
2022-12-18T13:40:43.735Z,97870.22
2022-12-18T13:43:10.322Z,97868.38
2022-12-18T13:45:37.627Z,97870.66
2022-12-18T13:48:03.996Z,97872.75
2022-12-18T13:50:36.117Z,97880.94
2022-12-18T13:53:02.720Z,97872.84
2022-12-18T13:55:29.073Z,97876.97
2022-12-18T13:57:55.334Z,97874.13
2022-12-18T14:00:22.535Z,97864.94
2022-12-18T14:02:49.095Z,97861.09
2022-12-18T14:05:15.390Z,97857.88
2022-12-18T14:07:41.881Z,97873.22
2022-12-18T14:10:41.836Z,97869.31
2022-12-18T14:12:56.353Z,97874.28
2022-12-18T14:15:22.924Z,97867.72
2022-12-18T14:17:49.294Z,97863.75
2022-12-18T14:20:15.550Z,97870.44
2022-12-18T14:22:41.815Z,97872.22
2022-12-18T14:25:08.059Z,97872.91
2022-12-18T14:27:34.336Z,97884.53
2022-12-18T14:30:00.588Z,97884.47
2022-12-18T14:32:26.837Z,97879.69
2022-12-18T14:34:53.128Z,97874.38
2022-12-18T14:37:19.401Z,97886.44
2022-12-18T14:39:45.662Z,97884.16
2022-12-18T14:42:11.922Z,97897.56
2022-12-18T14:44:50.648Z,97883.03
2022-12-18T14:47:24.415Z,97888.09
2022-12-18T14:49:50.774Z,97894.59
2022-12-18T14:52:17.124Z,97899.19
2022-12-18T14:54:43.377Z,97894.25
2022-12-18T14:57:09.641Z,97881.44
2022-12-18T14:59:36.642Z,97886.75
2022-12-18T15:02:03.128Z,97887.50
2022-12-18T15:04:30.569Z,97892.72
2022-12-18T15:06:56.819Z,97890.19
2022-12-18T15:09:23.078Z,97895.28
2022-12-18T15:11:49.392Z,97896.25
2022-12-18T15:14:15.845Z,97897.81
2022-12-18T15:16:46.142Z,97896.19
2022-12-18T15:19:12.604Z,97901.09
2022-12-18T15:21:38.879Z,97902.84
2022-12-18T15:24:05.222Z,97900.94
2022-12-18T15:26:31.471Z,97902.13
2022-12-18T15:28:57.752Z,97908.81
2022-12-18T15:31:24.112Z,97921.59
2022-12-18T15:33:50.453Z,97915.13
2022-12-18T15:36:16.716Z,97916.13
2022-12-18T15:38:45.267Z,97905.91
2022-12-18T15:41:14.200Z,97917.88
2022-12-18T15:43:41.062Z,97912.75
2022-12-18T15:46:07.746Z,97915.47
2022-12-18T15:48:34.044Z,97914.19
2022-12-18T15:51:00.322Z,97917.56
2022-12-18T15:53:26.578Z,97897.75
2022-12-18T15:55:56.542Z,97903.31
2022-12-18T15:58:27.076Z,97917.47
2022-12-18T16:00:53.343Z,97914.00
2022-12-18T16:03:19.733Z,97912.19
2022-12-18T16:05:46.161Z,97904.06
2022-12-18T16:08:12.450Z,97918.28
2022-12-18T16:10:38.720Z,97912.72
2022-12-18T16:13:05.001Z,97904.59
2022-12-18T16:15:31.307Z,97898.66
2022-12-18T16:17:57.589Z,97908.25
2022-12-18T16:20:23.858Z,97901.66
2022-12-18T16:22:50.138Z,97904.84
2022-12-18T16:25:16.404Z,97899.38
2022-12-18T16:27:42.693Z,97902.84
2022-12-18T16:30:10.346Z,97906.69
2022-12-18T16:32:36.614Z,97911.88
2022-12-18T16:35:02.904Z,97913.06
2022-12-18T16:37:29.266Z,97925.50
2022-12-18T16:39:55.565Z,97926.31
2022-12-18T16:42:21.839Z,97925.81
2022-12-18T16:44:48.138Z,97923.19
2022-12-18T16:47:15.050Z,97918.16
2022-12-18T16:49:41.787Z,97914.88
2022-12-18T16:52:08.106Z,97915.69
2022-12-18T16:54:34.360Z,97914.88
2022-12-18T16:57:00.627Z,97921.34
2022-12-18T16:59:26.983Z,97918.38
2022-12-18T17:01:54.366Z,97920.03
2022-12-18T17:04:20.722Z,97908.97
2022-12-18T17:06:47.004Z,97904.88
2022-12-18T17:09:13.302Z,97897.94
2022-12-18T17:11:39.568Z,97894.09
2022-12-18T17:14:05.907Z,97894.28
2022-12-18T17:16:32.230Z,97897.28
2022-12-18T17:18:59.795Z,97891.16
2022-12-18T17:21:26.135Z,97892.16
2022-12-18T17:23:52.410Z,97891.16
2022-12-18T17:26:18.696Z,97885.69
2022-12-18T17:28:45.026Z,97897.94
2022-12-18T17:31:11.478Z,97917.16
2022-12-18T17:33:38.210Z,97924.06
2022-12-18T17:36:04.731Z,97931.09
2022-12-18T17:38:30.994Z,97933.16
2022-12-18T17:40:57.293Z,97930.69
2022-12-18T17:43:23.545Z,97935.09
2022-12-18T17:45:49.809Z,97927.78
2022-12-18T17:48:16.077Z,97927.44
2022-12-18T17:50:42.357Z,97928.28
2022-12-18T17:53:08.633Z,97932.03
2022-12-18T17:55:34.916Z,97914.53
2022-12-18T17:58:01.247Z,97903.94
2022-12-18T18:00:27.608Z,97900.31
2022-12-18T18:02:54.059Z,97903.78
2022-12-18T18:05:20.400Z,97920.28
2022-12-18T18:07:47.870Z,97919.25
2022-12-18T18:10:14.129Z,97915.78
2022-12-18T18:12:40.379Z,97916.13
2022-12-18T18:15:06.756Z,97927.34
2022-12-18T18:17:33.019Z,97921.25
2022-12-18T18:19:59.293Z,97932.00
2022-12-18T18:22:25.569Z,97934.50
2022-12-18T18:24:52.223Z,97924.22
2022-12-18T18:27:18.498Z,97925.53
2022-12-18T18:29:44.800Z,97918.25
2022-12-18T18:32:11.046Z,97909.50
2022-12-18T18:34:37.321Z,97925.78
2022-12-18T18:37:03.948Z,97921.34
2022-12-18T18:39:30.237Z,97914.22
2022-12-18T18:41:56.502Z,97918.50
2022-12-18T18:44:24.868Z,97906.13
2022-12-18T18:46:52.523Z,97913.69
2022-12-18T18:49:18.795Z,97915.34
2022-12-18T18:51:45.081Z,97919.00
2022-12-18T18:54:11.352Z,97914.03
2022-12-18T18:59:25.027Z,97928.28
2022-12-18T19:01:58.545Z,97941.00
2022-12-18T19:04:24.942Z,97956.78
2022-12-18T19:06:51.225Z,97943.91
2022-12-18T19:09:18.072Z,97937.78
2022-12-18T19:11:44.322Z,97939.91
2022-12-18T19:14:10.724Z,97932.63
2022-12-18T19:16:37.054Z,97915.78
2022-12-18T19:19:03.581Z,97922.72
2022-12-18T19:21:31.141Z,97927.19
2022-12-18T19:23:59.695Z,97916.88
2022-12-18T19:26:28.234Z,97918.88
2022-12-18T19:28:55.048Z,97910.31
2022-12-18T19:31:25.413Z,97910.41
2022-12-18T19:33:53.426Z,97903.38
2022-12-18T19:36:19.713Z,97897.91
2022-12-18T19:38:46.148Z,97910.09
2022-12-18T19:41:12.608Z,97927.00
2022-12-18T19:43:40.144Z,97931.38
2022-12-18T19:46:06.416Z,97927.91
2022-12-18T19:48:32.751Z,97916.34
2022-12-18T19:50:59.025Z,97926.09
2022-12-18T19:53:25.401Z,97935.31
2022-12-18T19:55:51.685Z,97933.03
2022-12-18T19:58:17.932Z,97925.78
2022-12-18T20:00:46.804Z,97925.63
2022-12-18T20:03:24.259Z,97924.97
2022-12-18T20:05:53.550Z,97924.78
2022-12-18T20:08:19.806Z,97930.44
2022-12-18T20:10:46.074Z,97911.75
2022-12-18T20:13:12.421Z,97909.94
2022-12-18T20:15:45.146Z,97908.28
2022-12-18T20:18:11.841Z,97897.19
2022-12-18T20:20:38.272Z,97903.94
2022-12-18T20:23:04.563Z,97896.84
2022-12-18T20:25:30.812Z,97901.13
2022-12-18T20:27:57.069Z,97888.09
2022-12-18T20:30:23.885Z,97893.84
2022-12-18T20:32:50.148Z,97885.56
2022-12-18T20:35:16.441Z,97888.88
2022-12-18T20:37:46.085Z,97886.41
2022-12-18T20:40:15.066Z,97894.31
2022-12-18T20:42:41.342Z,97908.19
2022-12-18T20:45:07.594Z,97913.13
2022-12-18T20:47:33.842Z,97902.72
2022-12-18T20:50:00.106Z,97899.44
2022-12-18T20:52:26.423Z,97895.31
2022-12-18T20:54:52.693Z,97887.41
2022-12-18T20:57:18.962Z,97880.94
2022-12-18T20:59:48.329Z,97867.06
2022-12-18T21:02:14.998Z,97882.47
2022-12-18T21:04:41.357Z,97882.47
2022-12-18T21:07:07.631Z,97891.38
2022-12-18T21:09:38.056Z,97896.19
2022-12-18T21:12:04.862Z,97890.38
2022-12-18T21:14:31.110Z,97877.16
2022-12-18T21:16:57.442Z,97870.72
2022-12-18T21:19:23.806Z,97873.00
2022-12-18T21:21:50.106Z,97884.06
2022-12-18T21:24:16.415Z,97876.94
2022-12-18T21:26:45.768Z,97875.28
2022-12-18T21:29:12.652Z,97881.63
2022-12-18T21:31:38.942Z,97885.94
2022-12-18T21:34:05.261Z,97882.97
2022-12-18T21:36:31.546Z,97890.59
2022-12-18T21:38:58.368Z,97875.75
2022-12-18T21:41:24.774Z,97885.31
2022-12-18T21:43:51.330Z,97872.94
2022-12-18T21:46:17.678Z,97879.03
2022-12-18T21:48:43.972Z,97870.13
2022-12-18T21:51:10.351Z,97874.69
2022-12-18T21:53:36.689Z,97874.69
2022-12-18T21:56:02.964Z,97876.53
2022-12-18T21:58:29.223Z,97877.81
2022-12-18T22:00:55.473Z,97874.53
2022-12-18T22:03:21.892Z,97871.06
2022-12-18T22:05:50.581Z,97877.34
2022-12-18T22:08:33.790Z,97877.88
2022-12-18T22:11:00.118Z,97877.41
2022-12-18T22:13:26.404Z,97880.16
2022-12-18T22:15:52.680Z,97886.75
2022-12-18T22:18:18.962Z,97886.16
2022-12-18T22:20:45.267Z,97887.75
2022-12-18T22:23:11.529Z,97886.16
2022-12-18T22:25:38.931Z,97885.66
2022-12-18T22:28:06.100Z,97877.22
2022-12-18T22:30:32.396Z,97879.88
2022-12-18T22:32:59.205Z,97885.94
2022-12-18T22:35:25.454Z,97892.81
2022-12-18T22:37:51.703Z,97893.94
2022-12-18T22:40:22.254Z,97887.97
2022-12-18T22:42:50.517Z,97898.03
2022-12-18T22:45:18.818Z,97900.13
2022-12-18T22:47:45.103Z,97897.63
2022-12-18T22:50:11.355Z,97909.72
2022-12-18T22:52:37.631Z,97911.53
2022-12-18T22:55:03.913Z,97912.22
2022-12-18T22:57:32.735Z,97902.59
2022-12-18T23:00:00.086Z,97901.25
2022-12-18T23:02:26.520Z,97895.81
2022-12-18T23:04:52.930Z,97895.44
2022-12-18T23:07:19.198Z,97898.09
2022-12-18T23:09:45.578Z,97898.28
2022-12-18T23:12:13.486Z,97894.97
2022-12-18T23:14:39.753Z,97884.94
2022-12-18T23:17:06.010Z,97892.34
2022-12-18T23:19:32.278Z,97888.22
2022-12-18T23:21:58.531Z,97898.78
2022-12-18T23:24:24.767Z,97899.97
2022-12-18T23:26:51.016Z,97889.56
2022-12-18T23:29:17.285Z,97891.03
2022-12-18T23:31:43.634Z,97881.09
2022-12-18T23:34:10.076Z,97887.69
2022-12-18T23:36:45.627Z,97879.59
2022-12-18T23:39:15.488Z,97880.19
2022-12-18T23:41:55.492Z,97882.50
2022-12-18T23:44:21.765Z,97876.22
2022-12-18T23:46:48.049Z,97878.69
2022-12-18T23:49:14.305Z,97876.84
2022-12-18T23:51:40.590Z,97877.50
2022-12-18T23:54:06.842Z,97874.69
2022-12-18T23:56:33.107Z,97877.16
2022-12-18T23:58:59.373Z,97877.03
